• Join FlightAware (Why Join?)
  • Login
  • US Flag 
05:57AM EDT


 

Airport Tracker/Info


-or-


 

Live Flight TrackerFlight Track Log ✈ UCA597 ✈ 10-Nov-2013 ✈ KIAD - KBGM

Flight Track Log - Related Links

Times and Time Zones

All times are in EST time to prevent confusion due to time zone crossing. See the UCA597 flight status page for this flight to view local times or setup timezone preferences in your user account.

Time Position Orientation Groundspeed Altitude Reporting Facility
EST Latitude Longitude Course Direction KTS MPH feet Rate Location/Type
05:29PM 39.0167 -77.4667 339° North 158 182 3,700  Level Potomac TRACON
05:30PM 39.0500 -77.4833 339° North 159 183 5,300 1,620 Climbing Potomac TRACON
05:32PM 39.1147 -77.5283 332° Northwest 168 193 8,200 1,620 Climbing Washington Center
05:33PM 39.1606 -77.5242 North 163 188 10,000 1,680 Climbing Washington Center
05:34PM 39.2064 -77.5200 North 163 188 11,600 1,500 Climbing Washington Center
05:35PM 39.2586 -77.5136 North 163 188 13,100 1,380 Climbing Washington Center
05:36PM 39.3047 -77.5067 North 163 188 14,400 960 Climbing Washington Center
05:37PM 39.3569 -77.5000 North 169 194 15,100 780 Climbing Washington Center
05:38PM 39.4092 -77.4906 North 174 200 16,100 720 Climbing Washington Center
05:40PM 39.5647 -77.4689 North 210 242 17,700 600 Climbing New York Center
05:41PM 39.6217 -77.4556 10° North 223 257 18,400 600 Climbing New York Center
05:42PM 39.6886 -77.4511 North 218 251 19,000 300 Climbing New York Center
05:43PM 39.7450 -77.4511 360° North 218 251 19,000  Level New York Center
05:44PM 39.8158 -77.4525 359° North 223 257 19,000  Level New York Center
05:45PM 39.8764 -77.4528 360° North 235 270 19,000  Level New York Center
05:46PM 39.9472 -77.4514 North 235 270 19,000  Level New York Center
05:47PM 40.0036 -77.4486 North 235 270 19,000  Level New York Center
05:48PM 40.0706 -77.4469 North 224 258 19,000  Level New York Center
05:49PM 40.1247 -77.4467 360° North 212 244 19,000  Level New York Center
05:50PM 40.1853 -77.4444 North 207 238 19,000  Level New York Center
05:51PM 40.2375 -77.4439 360° North 207 238 19,000  Level New York Center
05:52PM 40.2928 -77.4628 345° North 202 232 19,000  Level New York Center
05:53PM 40.3261 -77.4986 321° Northwest 170 196 19,000  Level New York Center
05:54PM 40.3931 -77.4561 26° Northeast 210 242 19,000  Level New York Center
05:55PM 40.4497 -77.4153 29° Northeast 241 277 19,000 -180 Level New York Center
05:56PM 40.5169 -77.3672 29° Northeast 252 290 18,700 -600 Descending New York Center
05:57PM 40.5758 -77.3208 31° Northeast 260 299 17,800 -900 Descending New York Center
05:58PM 40.6494 -77.2706 27° Northeast 266 306 17,000 -420 Descending New York Center
05:59PM 40.7083 -77.2267 29° Northeast 255 293 17,000  Level New York Center
06:00PM 40.7625 -77.1853 30° Northeast 241 277 17,000  Level New York Center
06:01PM 40.8211 -77.1442 28° Northeast 236 272 17,000  Level New York Center
06:02PM 40.8775 -77.1028 29° Northeast 236 272 17,000  Level New York Center
06:03PM 40.9381 -77.0589 29° Northeast 236 272 17,000  Level New York Center
06:04PM 40.9989 -77.0150 29° Northeast 236 272 17,000  Level New York Center
06:05PM 41.0619 -76.9656 31° Northeast 236 272 17,000  Level New York Center
06:06PM 41.1225 -76.9217 29° Northeast 236 272 17,000  Level New York Center
06:07PM 41.1831 -76.8775 29° Northeast 242 278 17,100  Climbing New York Center
06:09PM 41.2461 -76.8178 35° Northeast  Level FlightAware Approximate
06:09PM 41.3064 -76.7864 35° Northeast 247 284 17,100  Level New York Center
06:10PM 41.3650 -76.7419 30° Northeast 247 284 17,100  Level New York Center
06:11PM 41.4258 -76.6947 30° Northeast 247 284 17,100  Level New York Center
06:12PM 41.4864 -76.6475 30° Northeast 247 284 17,100 -540 Level New York Center
06:13PM 41.5425 -76.6053 29° Northeast 247 284 16,100 -1,320 Descending New York Center
06:14PM 41.6075 -76.5581 29° Northeast 263 303 14,600 -1,680 Descending New York Center
06:15PM 41.6789 -76.5006 31° Northeast 263 303 12,900 -1,560 Descending New York Center
06:16PM 41.7414 -76.4558 28° Northeast 263 303 11,500 -1,500 Descending New York Center
06:17PM 41.8061 -76.4083 29° Northeast 258 297 9,900 -1,560 Descending New York Center
06:18PM 41.8561 -76.3681 31° Northeast 258 297 8,500 -1,620 Descending New York Center
06:19PM 41.9153 -76.3006 40° Northeast 245 282 6,800 -1,620 Descending New York Center
06:20PM 41.9603 -76.2319 49° Northeast 245 282 5,300 -1,440 Descending New York Center
06:21PM 42.0069 -76.1631 48° Northeast 245 282 4,000 -660 Descending New York Center
06:22PM 42.0408 -76.1044 52° Northeast 233 268 4,000  Level New York Center
06:23PM 42.0753 -76.0375 55° Northeast 222 255 4,000 -120 Level New York Center
06:24PM 42.1011 -75.9697 63° Northeast 211 243 3,800 -360 Descending New York Center
06:25PM 42.1319 -75.9272 46° Northeast 179 206 3,300 -660 Descending New York Center
06:26PM 42.1628 -75.9381 345° North 118 136 2,500 -720 Descending New York Center
06:27PM 42.1869 -75.9594 327° Northwest 99 114 1,900 -600 Descending New York Center
06:29PM 42.2084 -75.9796 338° Northwest  Level Estimated
06:36PM 42.2084 -75.9796 North  Level Estimated
06:37PM 42.2084 -75.9796 North  Level Estimated
06:38PM 42.2084 -75.9796 North  Level Estimated